Lowest pressure

Not for real navigation. The accuracy of this data is not assured See disclaimer for more information



ICAO NAME COUNTRY WIND Kt GUST Kt VIS m TEMP/DEW C BARO METAR
NZSP Amundsen-Scott South Pole Stat Antarctica 7 0 3200 -50/0 28.50 NZSP 252350Z 05007KT 3200 IC BR BKN010 M50/ A2850 RMK CLN AIR 05007KT ALL WNDS GRID
UHMD Buhta Providenja Russia 6 0 8000 1/-2 29.09 UHMD 252330Z 01006KT 8000 -SHSNRA FEW013 BKN018CB OVC033 01/M02 Q0985 RMK QBB400 MT OBSC QFE738/0984
PASA Savoonga Airport AK United States 16 0 14400 0/0 29.16 PASA 252356Z AUTO 17016KT 9SM OVC037 A2916 RMK AO2 RAE22UPB22E25 SLPNO P0000 60000 51024 FZRANO $
ESNQ Kiruna Airport Sweden 3 0 9999 1/1 29.21 ESNQ 252350Z AUTO 21003KT 9999 OVC051/// 01/01 Q0989
EFET Enontekio Finland 0 0 9999 -1/-1 29.21 EFET 252350Z AUTO 00000KT 9999 FEW040 OVC063 M01/M01 Q0989

Show more